WIF1DK ENBR-ENSG
Flight info
| Callsign | WIF1DK |
|---|---|
| Flight time | 0h 23m |
| Altitude | 13000 |
| Route | INTUM |
| Aircraft | DH8A/M-SDFGR/S |
Departure
| Time | 2026-04-27 15:22 |
|---|---|
| Airport | Bergen Airport, Flesland (ENBR) |
Arrival
| Time | 2026-04-27 15:45 |
|---|---|
| Airport | Sogndal Airport, Haukåsen (ENSG) |
| Time | Latitude | Longitude | Altitude | Speed | Heading |
|---|---|---|---|---|---|
| 2026-04-27 15:04 | 60.29095 | 5.22666 | 161 ft | 0 kts | 29° |
| 2026-04-27 15:17 | 60.29096 | 5.22670 | 161 ft | 1 kts | 61° |
| 2026-04-27 15:17 | 60.29076 | 5.22661 | 161 ft | 6 kts | 220° |
| 2026-04-27 15:17 | 60.29065 | 5.22642 | 161 ft | 0 kts | 217° |
| 2026-04-27 15:17 | 60.29053 | 5.22625 | 161 ft | 6 kts | 221° |
| 2026-04-27 15:18 | 60.29035 | 5.22511 | 161 ft | 10 kts | 263° |
| 2026-04-27 15:18 | 60.29016 | 5.22382 | 161 ft | 12 kts | 209° |
| 2026-04-27 15:18 | 60.28935 | 5.22341 | 161 ft | 11 kts | 244° |
| 2026-04-27 15:18 | 60.28851 | 5.22299 | 161 ft | 16 kts | 170° |
| 2026-04-27 15:19 | 60.28738 | 5.22339 | 160 ft | 12 kts | 169° |
| 2026-04-27 15:19 | 60.28672 | 5.22281 | 159 ft | 9 kts | 254° |
| 2026-04-27 15:19 | 60.28668 | 5.22237 | 159 ft | 0 kts | 260° |
| 2026-04-27 15:20 | 60.28667 | 5.22222 | 159 ft | 4 kts | 258° |
| 2026-04-27 15:20 | 60.28657 | 5.22105 | 157 ft | 9 kts | 269° |
| 2026-04-27 15:20 | 60.28683 | 5.22036 | 157 ft | 0 kts | 348° |
| 2026-04-27 15:21 | 60.28688 | 5.22034 | 157 ft | 3 kts | 349° |
| 2026-04-27 15:21 | 60.28753 | 5.22013 | 158 ft | 29 kts | 351° |
| 2026-04-27 15:21 | 60.29251 | 5.21837 | 156 ft | 105 kts | 351° |
| 2026-04-27 15:21 | 60.30093 | 5.21630 | 474 ft | 121 kts | 355° |
| 2026-04-27 15:22 | 60.30953 | 5.21820 | 1016 ft | 126 kts | 22° |
| 2026-04-27 15:22 | 60.31766 | 5.22644 | 1542 ft | 132 kts | 30° |
| 2026-04-27 15:22 | 60.32524 | 5.23700 | 2169 ft | 129 kts | 38° |
| 2026-04-27 15:22 | 60.33199 | 5.24817 | 2808 ft | 124 kts | 41° |
| 2026-04-27 15:23 | 60.33861 | 5.26017 | 3389 ft | 126 kts | 44° |
| 2026-04-27 15:23 | 60.34481 | 5.27245 | 4010 ft | 124 kts | 46° |
| 2026-04-27 15:23 | 60.35067 | 5.28514 | 4616 ft | 123 kts | 48° |
| 2026-04-27 15:23 | 60.35616 | 5.29811 | 5201 ft | 123 kts | 50° |
| 2026-04-27 15:24 | 60.36148 | 5.31187 | 5802 ft | 124 kts | 51° |
| 2026-04-27 15:24 | 60.36821 | 5.32233 | 6367 ft | 123 kts | 22° |
| 2026-04-27 15:24 | 60.37616 | 5.32864 | 6953 ft | 122 kts | 20° |
| 2026-04-27 15:24 | 60.38406 | 5.33445 | 7531 ft | 122 kts | 20° |
| 2026-04-27 15:25 | 60.39198 | 5.34015 | 8110 ft | 123 kts | 19° |
| 2026-04-27 15:25 | 60.40006 | 5.34590 | 8690 ft | 123 kts | 19° |
| 2026-04-27 15:25 | 60.40818 | 5.35169 | 9267 ft | 125 kts | 19° |
| 2026-04-27 15:25 | 60.41627 | 5.35746 | 9828 ft | 125 kts | 19° |
| 2026-04-27 15:26 | 60.42472 | 5.36062 | 10370 ft | 127 kts | 358° |
| 2026-04-27 15:26 | 60.43295 | 5.36485 | 10905 ft | 127 kts | 28° |
| 2026-04-27 15:26 | 60.44077 | 5.37340 | 11461 ft | 129 kts | 26° |
| 2026-04-27 15:26 | 60.44882 | 5.38106 | 11972 ft | 128 kts | 24° |
| 2026-04-27 15:27 | 60.45688 | 5.38847 | 12390 ft | 130 kts | 24° |
| 2026-04-27 15:27 | 60.46517 | 5.39592 | 12800 ft | 131 kts | 24° |
| 2026-04-27 15:27 | 60.47387 | 5.40369 | 13022 ft | 148 kts | 24° |
| 2026-04-27 15:27 | 60.48425 | 5.41294 | 13041 ft | 176 kts | 24° |
| 2026-04-27 15:28 | 60.49630 | 5.42369 | 13041 ft | 201 kts | 24° |
| 2026-04-27 15:28 | 60.50975 | 5.43562 | 13013 ft | 221 kts | 24° |
| 2026-04-27 15:28 | 60.52438 | 5.44859 | 13063 ft | 233 kts | 24° |
| 2026-04-27 15:28 | 60.53902 | 5.46157 | 13375 ft | 232 kts | 24° |
| 2026-04-27 15:29 | 60.55410 | 5.47498 | 13387 ft | 244 kts | 24° |
| 2026-04-27 15:29 | 60.56998 | 5.48909 | 13389 ft | 253 kts | 24° |
| 2026-04-27 15:29 | 60.58625 | 5.50356 | 13369 ft | 260 kts | 24° |
| 2026-04-27 15:29 | 60.60106 | 5.51675 | 13359 ft | 264 kts | 24° |
| 2026-04-27 15:30 | 60.61744 | 5.53134 | 13360 ft | 267 kts | 24° |
| 2026-04-27 15:30 | 60.63456 | 5.54663 | 13340 ft | 270 kts | 24° |
| 2026-04-27 15:30 | 60.65008 | 5.56816 | 13335 ft | 273 kts | 47° |
| 2026-04-27 15:30 | 60.66161 | 5.59919 | 13354 ft | 274 kts | 52° |
| 2026-04-27 15:31 | 60.67245 | 5.63131 | 13331 ft | 276 kts | 55° |
| 2026-04-27 15:31 | 60.68296 | 5.66387 | 13328 ft | 276 kts | 56° |
| 2026-04-27 15:31 | 60.69349 | 5.69692 | 13324 ft | 275 kts | 56° |
| 2026-04-27 15:31 | 60.70379 | 5.72937 | 13320 ft | 271 kts | 57° |
| 2026-04-27 15:32 | 60.71319 | 5.75932 | 13313 ft | 267 kts | 57° |
| 2026-04-27 15:32 | 60.72317 | 5.79126 | 13318 ft | 265 kts | 57° |
| 2026-04-27 15:32 | 60.73302 | 5.82260 | 13309 ft | 263 kts | 57° |
| 2026-04-27 15:32 | 60.74306 | 5.85445 | 13301 ft | 262 kts | 56° |
| 2026-04-27 15:33 | 60.75285 | 5.88551 | 13297 ft | 261 kts | 56° |
| 2026-04-27 15:33 | 60.76276 | 5.91706 | 13284 ft | 259 kts | 56° |
| 2026-04-27 15:33 | 60.77242 | 5.94775 | 13284 ft | 259 kts | 56° |
| 2026-04-27 15:33 | 60.78216 | 5.97876 | 13269 ft | 258 kts | 56° |
| 2026-04-27 15:34 | 60.79178 | 6.00945 | 13262 ft | 258 kts | 56° |
| 2026-04-27 15:34 | 60.80150 | 6.04048 | 13259 ft | 257 kts | 56° |
| 2026-04-27 15:34 | 60.81112 | 6.07122 | 13260 ft | 257 kts | 56° |
| 2026-04-27 15:34 | 60.82064 | 6.10209 | 13255 ft | 256 kts | 56° |
| 2026-04-27 15:35 | 60.83020 | 6.13255 | 13258 ft | 256 kts | 56° |
| 2026-04-27 15:35 | 60.83974 | 6.16308 | 13255 ft | 255 kts | 56° |
| 2026-04-27 15:35 | 60.84929 | 6.19369 | 13252 ft | 255 kts | 56° |
| 2026-04-27 15:35 | 60.85887 | 6.22447 | 13252 ft | 255 kts | 56° |
| 2026-04-27 15:36 | 60.86843 | 6.25525 | 13256 ft | 255 kts | 56° |
| 2026-04-27 15:36 | 60.87780 | 6.28550 | 13253 ft | 253 kts | 56° |
| 2026-04-27 15:36 | 60.88709 | 6.31542 | 13046 ft | 246 kts | 56° |
| 2026-04-27 15:36 | 60.89650 | 6.34516 | 12555 ft | 253 kts | 55° |
| 2026-04-27 15:37 | 60.90599 | 6.37563 | 12365 ft | 254 kts | 56° |
| 2026-04-27 15:37 | 60.91541 | 6.40610 | 12257 ft | 251 kts | 56° |
| 2026-04-27 15:37 | 60.92468 | 6.43623 | 12134 ft | 249 kts | 56° |
| 2026-04-27 15:37 | 60.93394 | 6.46639 | 12001 ft | 248 kts | 56° |
| 2026-04-27 15:38 | 60.94321 | 6.49653 | 11845 ft | 248 kts | 56° |
| 2026-04-27 15:38 | 60.95234 | 6.52632 | 11694 ft | 247 kts | 56° |
| 2026-04-27 15:38 | 60.96128 | 6.55551 | 11374 ft | 241 kts | 56° |
| 2026-04-27 15:38 | 60.97030 | 6.58498 | 10830 ft | 244 kts | 56° |
| 2026-04-27 15:39 | 60.97931 | 6.61443 | 10355 ft | 245 kts | 56° |
| 2026-04-27 15:39 | 60.98833 | 6.64410 | 9926 ft | 243 kts | 56° |
| 2026-04-27 15:39 | 60.99727 | 6.67340 | 9487 ft | 244 kts | 56° |
| 2026-04-27 15:39 | 61.00626 | 6.70284 | 9185 ft | 235 kts | 57° |
| 2026-04-27 15:40 | 61.01490 | 6.73102 | 8888 ft | 228 kts | 56° |
| 2026-04-27 15:40 | 61.02233 | 6.75573 | 8553 ft | 226 kts | 57° |
| 2026-04-27 15:40 | 61.03079 | 6.78312 | 8149 ft | 225 kts | 55° |
| 2026-04-27 15:40 | 61.03930 | 6.80918 | 7662 ft | 228 kts | 55° |
| 2026-04-27 15:41 | 61.04827 | 6.83649 | 7162 ft | 230 kts | 56° |
| 2026-04-27 15:41 | 61.05722 | 6.86340 | 6785 ft | 227 kts | 54° |
| 2026-04-27 15:41 | 61.06612 | 6.88954 | 6389 ft | 221 kts | 54° |
| 2026-04-27 15:41 | 61.07514 | 6.91441 | 5848 ft | 216 kts | 52° |
| 2026-04-27 15:42 | 61.08428 | 6.93848 | 5354 ft | 208 kts | 52° |
| 2026-04-27 15:42 | 61.09297 | 6.96131 | 4916 ft | 198 kts | 52° |
| 2026-04-27 15:42 | 61.10032 | 6.98067 | 4404 ft | 174 kts | 52° |
| 2026-04-27 15:42 | 61.10766 | 7.00001 | 4001 ft | 143 kts | 52° |
| 2026-04-27 15:43 | 61.11274 | 7.01422 | 3827 ft | 110 kts | 53° |
| 2026-04-27 15:43 | 61.11680 | 7.02549 | 3666 ft | 111 kts | 52° |
| 2026-04-27 15:43 | 61.12091 | 7.03940 | 3583 ft | 114 kts | 63° |
| 2026-04-27 15:43 | 61.12560 | 7.05293 | 3435 ft | 114 kts | 50° |
| 2026-04-27 15:44 | 61.13004 | 7.06442 | 3138 ft | 108 kts | 51° |
| 2026-04-27 15:44 | 61.13430 | 7.07571 | 2883 ft | 110 kts | 51° |
| 2026-04-27 15:44 | 61.13918 | 7.08857 | 2641 ft | 120 kts | 50° |
| 2026-04-27 15:44 | 61.14475 | 7.10233 | 2281 ft | 129 kts | 49° |
| 2026-04-27 15:45 | 61.14980 | 7.11634 | 1864 ft | 116 kts | 56° |
| 2026-04-27 15:45 | 61.15367 | 7.12900 | 1617 ft | 92 kts | 58° |
| 2026-04-27 15:45 | 61.15586 | 7.13664 | 1630 ft | 17 kts | 57° |
| 2026-04-27 15:45 | 61.15690 | 7.13622 | 1630 ft | 16 kts | 331° |
| 2026-04-27 15:46 | 61.15728 | 7.13631 | 1630 ft | 0 kts | 103° |
| 2026-04-27 15:46 | 61.15726 | 7.13647 | 1631 ft | 0 kts | 105° |